Time,TemperatureF,DewpointF,PressureIn,WindDirection,WindDirectionDegrees,WindSpeedMPH,WindSpeedGustMPH,Humidity,HourlyPrecipIn,Conditions,Clouds,dailyrainin,SoftwareType,DateUTC
2013-04-28 00:01:00,54.4,-1.1,29.37,North,0,0.0,0.0,1,0.01,,,0.08,WUHU216HW,2013-04-28 04:01:00,
2013-04-28 00:02:00,54.4,-1.1,29.37,North,0,0.0,0.0,1,0.01,,,0.00,WUHU216HW,2013-04-28 04:02:00,
2013-04-28 00:03:00,54.4,-1.1,29.37,North,0,0.0,0.0,1,0.01,,,0.00,WUHU216HW,2013-04-28 04:03:00,
2013-04-28 00:08:00,54.4,-1.1,29.37,North,0,0.0,0.0,1,0.01,,,0.00,WUHU216HW,2013-04-28 04:08:00,
2013-04-28 00:13:00,54.4,-1.1,29.36,North,0,0.0,0.0,1,0.01,,,0.00,WUHU216HW,2013-04-28 04:13:00,
2013-04-28 00:18:00,54.4,-1.1,29.36,North,0,0.0,0.0,1,0.01,,,0.00,WUHU216HW,2013-04-28 04:18:00,
2013-04-28 00:24:00,54.4,-1.1,29.36,North,0,0.0,0.0,1,0.02,,,0.00,WUHU216HW,2013-04-28 04:24:00,
2013-04-28 00:29:00,54.4,-1.1,29.35,North,0,0.0,0.0,1,0.02,,,0.01,WUHU216HW,2013-04-28 04:29:00,
2013-04-28 00:34:00,54.4,-1.1,29.36,North,0,0.0,0.0,1,0.02,,,0.01,WUHU216HW,2013-04-28 04:34:00,
2013-04-28 00:39:00,54.4,-1.1,29.35,North,0,0.0,0.0,1,0.02,,,0.01,WUHU216HW,2013-04-28 04:39:00,
2013-04-28 00:44:00,54.2,-1.2,29.35,North,0,0.0,0.0,1,0.02,,,0.01,WUHU216HW,2013-04-28 04:44:00,
2013-04-28 00:49:00,54.2,-1.2,29.34,North,0,0.0,0.0,1,0.02,,,0.01,WUHU216HW,2013-04-28 04:49:00,
2013-04-28 00:54:00,54.2,-1.2,29.34,North,0,0.0,0.0,1,0.01,,,0.01,WUHU216HW,2013-04-28 04:54:00,
2013-04-28 00:59:00,54.2,-1.2,29.34,North,0,0.0,0.0,1,0.01,,,0.01,WUHU216HW,2013-04-28 04:59:00,
2013-04-28 01:04:00,54.2,-1.2,29.34,North,0,0.0,0.0,1,0.01,,,0.01,WUHU216HW,2013-04-28 05:04:00,
2013-04-28 01:10:00,54.2,-1.2,29.34,North,0,0.0,0.0,1,0.01,,,0.01,WUHU216HW,2013-04-28 05:10:00,
2013-04-28 01:15:00,54.2,-1.2,29.33,North,0,0.0,0.0,1,0.01,,,0.01,WUHU216HW,2013-04-28 05:15:00,
2013-04-28 01:20:00,54.4,-1.1,29.33,North,0,0.0,0.0,1,0.01,,,0.01,WUHU216HW,2013-04-28 05:20:00,
2013-04-28 01:25:00,54.4,-1.1,29.33,North,0,0.0,0.0,1,0.00,,,0.01,WUHU216HW,2013-04-28 05:25:00,
2013-04-28 01:30:00,54.4,-1.1,29.33,North,0,0.0,0.0,1,0.00,,,0.01,WUHU216HW,2013-04-28 05:30:00,
2013-04-28 01:35:00,54.4,-1.1,29.32,North,0,0.0,0.0,1,0.00,,,0.01,WUHU216HW,2013-04-28 05:35:00,
2013-04-28 01:40:00,54.4,-1.1,29.32,North,0,0.0,0.0,1,0.00,,,0.01,WUHU216HW,2013-04-28 05:40:00,
2013-04-28 01:45:00,54.4,-1.1,29.32,North,0,0.0,0.0,1,0.00,,,0.01,WUHU216HW,2013-04-28 05:45:00,
2013-04-28 01:51:00,54.4,-1.1,29.32,North,0,0.0,0.0,1,0.00,,,0.01,WUHU216HW,2013-04-28 05:51:00,
2013-04-28 01:56:00,54.4,-1.1,29.32,North,0,0.0,0.0,1,0.00,,,0.01,WUHU216HW,2013-04-28 05:56:00,
2013-04-28 02:01:00,54.4,-1.1,29.31,North,0,0.0,0.0,1,0.00,,,0.01,WUHU216HW,2013-04-28 06:01:00,
2013-04-28 02:06:00,54.4,-1.1,29.31,North,0,0.0,0.0,1,0.00,,,0.01,WUHU216HW,2013-04-28 06:06:00,
2013-04-28 02:11:00,54.4,-1.1,29.31,North,0,0.0,0.0,1,0.00,,,0.01,WUHU216HW,2013-04-28 06:11:00,
2013-04-28 02:16:00,54.4,-1.1,29.30,North,0,0.0,0.0,1,0.00,,,0.01,WUHU216HW,2013-04-28 06:16:00,
2013-04-28 02:21:00,54.4,-1.1,29.30,North,0,0.0,0.0,1,0.00,,,0.01,WUHU216HW,2013-04-28 06:21:00,
2013-04-28 02:26:00,54.4,-1.1,29.30,North,0,0.0,0.0,1,0.00,,,0.01,WUHU216HW,2013-04-28 06:26:00,
2013-04-28 02:31:00,54.4,-1.1,29.29,North,0,0.0,0.0,1,0.00,,,0.01,WUHU216HW,2013-04-28 06:31:00,
2013-04-28 02:37:00,54.4,-1.1,29.29,North,0,0.0,0.0,1,0.00,,,0.01,WUHU216HW,2013-04-28 06:37:00,
2013-04-28 02:42:00,54.4,-1.1,29.29,North,0,0.0,0.0,1,0.00,,,0.01,WUHU216HW,2013-04-28 06:42:00,
2013-04-28 02:47:00,54.4,-1.1,29.29,North,0,0.0,0.0,1,0.00,,,0.01,WUHU216HW,2013-04-28 06:47:00,
2013-04-28 02:52:00,54.2,-1.2,29.28,North,0,0.0,0.0,1,0.02,,,0.03,WUHU216HW,2013-04-28 06:52:00,
2013-04-28 02:57:00,54.0,-1.3,29.28,North,0,0.0,0.0,1,0.03,,,0.05,WUHU216HW,2013-04-28 06:57:00,
2013-04-28 03:02:00,53.8,-1.4,29.28,North,0,0.0,0.0,1,0.04,,,0.05,WUHU216HW,2013-04-28 07:02:00,
2013-04-28 03:07:00,53.6,-1.6,29.28,North,0,0.0,0.0,1,0.06,,,0.07,WUHU216HW,2013-04-28 07:07:00,
2013-04-28 03:12:00,53.6,-1.6,29.27,North,0,0.0,0.0,1,0.09,,,0.10,WUHU216HW,2013-04-28 07:12:00,
2013-04-28 03:18:00,53.6,-1.6,29.27,North,0,0.0,0.0,1,0.11,,,0.12,WUHU216HW,2013-04-28 07:18:00,
2013-04-28 03:23:00,53.5,-1.8,29.27,North,0,0.0,0.0,1,0.12,,,0.14,WUHU216HW,2013-04-28 07:23:00,
2013-04-28 03:28:00,53.5,-1.8,29.27,North,0,0.0,0.0,1,0.12,,,0.14,WUHU216HW,2013-04-28 07:28:00,
2013-04-28 03:33:00,53.3,-1.9,29.27,North,0,0.0,0.0,1,0.13,,,0.15,WUHU216HW,2013-04-28 07:33:00,
2013-04-28 03:38:00,53.3,-1.9,29.27,North,0,0.0,0.0,1,0.13,,,0.15,WUHU216HW,2013-04-28 07:38:00,
2013-04-28 03:43:00,53.3,-1.9,29.27,North,0,0.0,0.0,1,0.14,,,0.16,WUHU216HW,2013-04-28 07:43:00,
2013-04-28 03:48:00,53.3,-1.9,29.27,North,0,0.0,0.0,1,0.13,,,0.16,WUHU216HW,2013-04-28 07:48:00,
2013-04-28 03:53:00,53.3,-1.9,29.27,North,0,0.0,0.0,1,0.11,,,0.16,WUHU216HW,2013-04-28 07:53:00,
2013-04-28 03:58:00,53.3,-1.9,29.26,North,0,0.0,0.0,1,0.10,,,0.16,WUHU216HW,2013-04-28 07:58:00,
2013-04-28 04:04:00,53.3,-1.9,29.26,North,0,0.0,0.0,1,0.08,,,0.16,WUHU216HW,2013-04-28 08:04:00,
2013-04-28 04:09:00,53.3,-1.9,29.26,North,0,0.0,0.0,1,0.06,,,0.16,WUHU216HW,2013-04-28 08:09:00,
2013-04-28 04:14:00,53.3,-1.9,29.26,North,0,0.0,0.0,1,0.03,,,0.16,WUHU216HW,2013-04-28 08:14:00,
2013-04-28 04:19:00,53.3,-1.9,29.26,North,0,0.0,0.0,1,0.02,,,0.16,WUHU216HW,2013-04-28 08:19:00,
2013-04-28 04:24:00,53.3,-1.9,29.26,North,0,0.0,0.0,1,0.02,,,0.16,WUHU216HW,2013-04-28 08:24:00,
2013-04-28 04:29:00,53.3,-1.9,29.26,North,0,0.0,0.0,1,0.01,,,0.16,WUHU216HW,2013-04-28 08:29:00,
2013-04-28 04:34:00,53.3,-1.9,29.25,North,0,0.0,0.0,1,0.00,,,0.16,WUHU216HW,2013-04-28 08:34:00,
2013-04-28 04:39:00,53.3,-1.9,29.25,North,0,0.0,0.0,1,0.00,,,0.16,WUHU216HW,2013-04-28 08:39:00,
2013-04-28 04:45:00,53.3,-1.9,29.25,North,0,0.0,0.0,1,0.00,,,0.16,WUHU216HW,2013-04-28 08:45:00,
2013-04-28 04:50:00,53.5,-1.8,29.25,North,0,0.0,0.0,1,0.00,,,0.16,WUHU216HW,2013-04-28 08:50:00,
2013-04-28 04:55:00,53.5,-1.8,29.25,North,0,0.0,0.0,1,0.00,,,0.16,WUHU216HW,2013-04-28 08:55:00,
2013-04-28 05:00:00,53.5,-1.8,29.25,North,0,0.0,0.0,1,0.00,,,0.16,WUHU216HW,2013-04-28 09:00:00,
2013-04-28 05:05:00,53.5,-1.8,29.25,North,0,0.0,0.0,1,0.00,,,0.16,WUHU216HW,2013-04-28 09:05:00,
2013-04-28 05:10:00,53.6,-1.6,29.24,North,0,0.0,0.0,1,0.00,,,0.16,WUHU216HW,2013-04-28 09:10:00,
2013-04-28 05:15:00,53.6,-1.6,29.24,North,0,0.0,0.0,1,0.00,,,0.16,WUHU216HW,2013-04-28 09:15:00,
2013-04-28 05:20:00,53.6,-1.6,29.24,North,0,0.0,0.0,1,0.00,,,0.16,WUHU216HW,2013-04-28 09:20:00,
2013-04-28 05:25:00,53.6,-1.6,29.25,North,0,0.0,0.0,1,0.00,,,0.16,WUHU216HW,2013-04-28 09:25:00,
2013-04-28 05:31:00,53.6,-1.6,29.24,North,0,0.0,0.0,1,0.00,,,0.16,WUHU216HW,2013-04-28 09:31:00,
2013-04-28 05:36:00,53.6,-1.6,29.24,North,0,0.0,0.0,1,0.00,,,0.16,WUHU216HW,2013-04-28 09:36:00,
2013-04-28 05:41:00,53.8,-1.4,29.24,North,0,0.0,0.0,1,0.00,,,0.16,WUHU216HW,2013-04-28 09:41:00,
2013-04-28 05:46:00,53.8,-1.4,29.24,North,0,0.0,0.0,1,0.00,,,0.16,WUHU216HW,2013-04-28 09:46:00,
2013-04-28 05:51:00,53.8,-1.4,29.24,North,0,0.0,0.0,1,0.00,,,0.16,WUHU216HW,2013-04-28 09:51:00,
2013-04-28 05:56:00,53.8,-1.4,29.24,North,0,0.0,0.0,1,0.00,,,0.16,WUHU216HW,2013-04-28 09:56:00,
2013-04-28 06:01:00,53.8,-1.4,29.24,North,0,0.0,0.0,1,0.00,,,0.16,WUHU216HW,2013-04-28 10:01:00,
2013-04-28 06:06:00,53.8,-1.4,29.24,North,0,0.0,0.0,1,0.00,,,0.16,WUHU216HW,2013-04-28 10:06:00,
2013-04-28 06:11:00,54.0,-1.3,29.24,North,0,0.0,0.0,1,0.00,,,0.16,WUHU216HW,2013-04-28 10:11:00,
2013-04-28 06:17:00,54.0,-1.3,29.24,North,0,0.0,0.0,1,0.01,,,0.17,WUHU216HW,2013-04-28 10:17:00,
2013-04-28 06:22:00,54.0,-1.3,29.24,North,0,0.0,0.0,1,0.01,,,0.17,WUHU216HW,2013-04-28 10:22:00,
2013-04-28 06:27:00,54.0,-1.3,29.24,North,0,0.0,0.0,1,0.01,,,0.17,WUHU216HW,2013-04-28 10:27:00,
2013-04-28 06:32:00,54.0,-1.3,29.24,North,0,0.0,0.0,1,0.01,,,0.17,WUHU216HW,2013-04-28 10:32:00,
2013-04-28 06:37:00,54.0,-1.3,29.23,North,0,0.0,0.0,1,0.01,,,0.17,WUHU216HW,2013-04-28 10:37:00,
2013-04-28 06:42:00,54.0,-1.3,29.23,North,0,0.0,0.0,1,0.01,,,0.17,WUHU216HW,2013-04-28 10:42:00,
2013-04-28 06:47:00,54.0,-1.3,29.23,North,0,0.0,0.0,1,0.01,,,0.17,WUHU216HW,2013-04-28 10:47:00,
2013-04-28 06:52:00,54.0,-1.3,29.23,North,0,0.0,0.0,1,0.01,,,0.17,WUHU216HW,2013-04-28 10:52:00,
2013-04-28 06:57:00,54.0,-1.3,29.23,North,0,0.0,0.0,1,0.01,,,0.17,WUHU216HW,2013-04-28 10:57:00,
2013-04-28 07:03:00,54.2,-1.2,29.23,North,0,0.0,0.0,1,0.01,,,0.17,WUHU216HW,2013-04-28 11:03:00,
2013-04-28 07:08:00,54.2,-1.2,29.23,North,0,0.0,0.0,1,0.01,,,0.17,WUHU216HW,2013-04-28 11:08:00,
2013-04-28 07:13:00,54.4,-1.1,29.23,North,0,0.0,0.0,1,0.00,,,0.17,WUHU216HW,2013-04-28 11:13:00,
2013-04-28 07:18:00,54.4,-1.1,29.23,North,0,0.0,0.0,1,0.00,,,0.17,WUHU216HW,2013-04-28 11:18:00,
2013-04-28 07:23:00,54.2,-1.2,29.23,North,0,0.0,0.0,1,0.00,,,0.17,WUHU216HW,2013-04-28 11:23:00,
2013-04-28 07:28:00,54.2,-1.2,29.23,North,0,0.0,0.0,1,0.01,,,0.18,WUHU216HW,2013-04-28 11:28:00,
2013-04-28 07:33:00,54.4,-1.1,29.24,North,0,0.0,0.0,1,0.01,,,0.18,WUHU216HW,2013-04-28 11:33:00,
2013-04-28 07:38:00,54.4,-1.1,29.23,North,0,0.0,0.0,1,0.01,,,0.18,WUHU216HW,2013-04-28 11:38:00,
2013-04-28 07:44:00,54.4,-1.1,29.23,North,0,0.0,0.0,1,0.01,,,0.18,WUHU216HW,2013-04-28 11:44:00,
2013-04-28 07:49:00,54.4,-1.1,29.23,North,0,0.0,0.0,1,0.01,,,0.18,WUHU216HW,2013-04-28 11:49:00,
2013-04-28 07:54:00,54.5,-0.9,29.23,North,0,0.0,0.0,1,0.01,,,0.18,WUHU216HW,2013-04-28 11:54:00,
2013-04-28 07:59:00,54.5,-0.9,29.24,North,0,0.0,0.0,1,0.02,,,0.18,WUHU216HW,2013-04-28 11:59:00,
2013-04-28 08:04:00,54.7,-0.7,29.23,North,0,0.0,0.0,1,0.03,,,0.19,WUHU216HW,2013-04-28 12:04:00,
2013-04-28 08:09:00,55.1,-0.4,29.24,North,0,0.0,0.0,1,0.04,,,0.21,WUHU216HW,2013-04-28 12:09:00,
2013-04-28 08:14:00,55.1,-0.4,29.24,North,0,0.0,0.0,1,0.04,,,0.21,WUHU216HW,2013-04-28 12:14:00,
2013-04-28 08:19:00,55.3,-0.4,29.23,North,0,0.0,0.0,1,0.04,,,0.21,WUHU216HW,2013-04-28 12:19:00,
2013-04-28 08:25:00,55.4,-0.2,29.24,North,0,0.0,0.0,1,0.03,,,0.21,WUHU216HW,2013-04-28 12:25:00,
2013-04-28 08:30:00,55.3,-0.4,29.24,North,0,0.0,0.0,1,0.03,,,0.21,WUHU216HW,2013-04-28 12:30:00,
2013-04-28 08:35:00,55.1,-0.4,29.24,North,0,0.0,0.0,1,0.03,,,0.21,WUHU216HW,2013-04-28 12:35:00,
2013-04-28 08:40:00,55.1,-0.4,29.24,North,0,0.0,0.0,1,0.03,,,0.21,WUHU216HW,2013-04-28 12:40:00,
2013-04-28 08:45:00,55.1,-0.4,29.24,North,0,0.0,0.0,1,0.04,,,0.21,WUHU216HW,2013-04-28 12:45:00,
2013-04-28 08:50:00,54.9,-0.6,29.24,North,0,0.0,0.0,1,0.09,,,0.26,WUHU216HW,2013-04-28 12:50:00,
2013-04-28 08:55:00,54.9,-0.6,29.24,North,0,0.0,0.0,1,0.13,,,0.30,WUHU216HW,2013-04-28 12:55:00,
2013-04-28 09:00:00,54.7,-0.7,29.24,North,0,0.0,0.0,1,0.12,,,0.32,WUHU216HW,2013-04-28 13:00:00,
2013-04-28 09:06:00,54.7,-0.7,29.24,North,0,0.0,0.0,1,0.12,,,0.33,WUHU216HW,2013-04-28 13:06:00,
2013-04-28 09:11:00,54.7,-0.7,29.23,North,0,0.0,0.0,1,0.13,,,0.34,WUHU216HW,2013-04-28 13:11:00,
2013-04-28 09:16:00,54.9,-0.6,29.24,North,0,0.0,0.0,1,0.14,,,0.35,WUHU216HW,2013-04-28 13:16:00,
2013-04-28 09:21:00,55.1,-0.4,29.23,North,0,0.0,0.0,1,0.15,,,0.36,WUHU216HW,2013-04-28 13:21:00,
2013-04-28 09:26:00,55.1,-0.4,29.23,North,0,0.0,0.0,1,0.15,,,0.36,WUHU216HW,2013-04-28 13:26:00,
2013-04-28 09:31:00,55.1,-0.4,29.23,North,0,0.0,0.0,1,0.15,,,0.36,WUHU216HW,2013-04-28 13:31:00,
2013-04-28 09:36:00,55.1,-0.4,29.23,North,0,0.0,0.0,1,0.15,,,0.36,WUHU216HW,2013-04-28 13:36:00,
2013-04-28 09:41:00,55.3,-0.4,29.23,North,0,0.0,0.0,1,0.15,,,0.36,WUHU216HW,2013-04-28 13:41:00,
2013-04-28 09:46:00,55.3,-0.4,29.23,North,0,0.0,0.0,1,0.10,,,0.36,WUHU216HW,2013-04-28 13:46:00,
2013-04-28 09:51:00,55.3,-0.4,29.23,North,0,0.0,0.0,1,0.07,,,0.37,WUHU216HW,2013-04-28 13:51:00,
2013-04-28 09:57:00,55.1,-0.4,29.23,North,0,0.0,0.0,1,0.05,,,0.37,WUHU216HW,2013-04-28 13:57:00,
2013-04-28 10:02:00,55.3,-0.4,29.23,North,0,0.0,0.0,1,0.05,,,0.37,WUHU216HW,2013-04-28 14:02:00,
2013-04-28 10:07:00,55.3,-0.4,29.23,North,0,0.0,0.0,1,0.03,,,0.37,WUHU216HW,2013-04-28 14:07:00,
2013-04-28 10:12:00,55.4,-0.2,29.22,North,0,0.0,0.0,1,0.03,,,0.37,WUHU216HW,2013-04-28 14:12:00,
2013-04-28 10:17:00,55.4,-0.2,29.22,North,0,0.0,0.0,1,0.02,,,0.37,WUHU216HW,2013-04-28 14:17:00,
2013-04-28 10:22:00,55.6,-0.1,29.22,North,0,0.0,0.0,1,0.01,,,0.37,WUHU216HW,2013-04-28 14:22:00,
2013-04-28 10:27:00,55.6,-0.1,29.22,North,0,0.0,0.0,1,0.01,,,0.37,WUHU216HW,2013-04-28 14:27:00,
2013-04-28 10:32:00,55.6,-0.1,29.22,North,0,0.0,0.0,1,0.01,,,0.37,WUHU216HW,2013-04-28 14:32:00,
2013-04-28 10:38:00,55.8,0.1,29.22,North,0,0.0,0.0,1,0.01,,,0.37,WUHU216HW,2013-04-28 14:38:00,
2013-04-28 10:43:00,55.8,0.1,29.23,North,0,0.0,0.0,1,0.01,,,0.37,WUHU216HW,2013-04-28 14:43:00,
2013-04-28 10:48:00,55.8,0.1,29.23,North,0,0.0,0.0,1,0.00,,,0.37,WUHU216HW,2013-04-28 14:48:00,
2013-04-28 10:53:00,55.8,0.1,29.22,North,0,0.0,0.0,1,0.00,,,0.37,WUHU216HW,2013-04-28 14:53:00,
2013-04-28 10:58:00,55.8,0.1,29.22,North,0,0.0,0.0,1,0.00,,,0.37,WUHU216HW,2013-04-28 14:58:00,
2013-04-28 11:03:00,56.2,0.4,29.22,North,0,0.0,0.0,1,0.00,,,0.37,WUHU216HW,2013-04-28 15:03:00,
2013-04-28 11:08:00,56.2,0.4,29.22,North,0,0.0,0.0,1,0.00,,,0.37,WUHU216HW,2013-04-28 15:08:00,
2013-04-28 11:13:00,56.2,0.4,29.22,North,0,0.0,0.0,1,0.00,,,0.37,WUHU216HW,2013-04-28 15:13:00,
2013-04-28 11:19:00,56.5,0.5,29.22,North,0,0.0,0.0,1,0.01,,,0.38,WUHU216HW,2013-04-28 15:19:00,
2013-04-28 11:24:00,56.5,0.5,29.22,North,0,0.0,0.0,1,0.01,,,0.38,WUHU216HW,2013-04-28 15:24:00,
2013-04-28 11:29:00,56.5,0.5,29.22,North,0,0.0,0.0,1,0.01,,,0.38,WUHU216HW,2013-04-28 15:29:00,
2013-04-28 11:34:00,56.5,0.5,29.22,North,0,0.0,0.0,1,0.01,,,0.38,WUHU216HW,2013-04-28 15:34:00,
2013-04-28 11:39:00,56.7,0.7,29.22,North,0,0.0,0.0,1,0.01,,,0.38,WUHU216HW,2013-04-28 15:39:00,
2013-04-28 11:44:00,56.9,0.8,29.22,North,0,0.0,0.0,1,0.01,,,0.38,WUHU216HW,2013-04-28 15:44:00,
2013-04-28 11:49:00,57.1,1.0,29.22,North,0,0.0,0.0,1,0.01,,,0.38,WUHU216HW,2013-04-28 15:49:00,
2013-04-28 11:54:00,57.1,1.0,29.22,North,0,0.0,0.0,1,0.01,,,0.38,WUHU216HW,2013-04-28 15:54:00,
2013-04-28 11:59:00,57.2,1.1,29.22,North,0,0.0,0.0,1,0.01,,,0.38,WUHU216HW,2013-04-28 15:59:00,
2013-04-28 12:04:00,57.2,1.1,29.22,North,0,0.0,0.0,1,0.01,,,0.38,WUHU216HW,2013-04-28 16:04:00,
2013-04-28 12:09:00,57.4,1.3,29.22,North,0,0.0,0.0,1,0.01,,,0.38,WUHU216HW,2013-04-28 16:09:00,
2013-04-28 12:15:00,57.6,1.4,29.22,North,0,0.0,0.0,1,0.00,,,0.38,WUHU216HW,2013-04-28 16:15:00,
2013-04-28 12:20:00,57.6,1.4,29.22,North,0,0.0,0.0,1,0.00,,,0.38,WUHU216HW,2013-04-28 16:20:00,
2013-04-28 12:25:00,57.2,1.1,29.22,North,0,0.0,0.0,1,0.00,,,0.38,WUHU216HW,2013-04-28 16:25:00,
2013-04-28 12:30:00,57.2,1.1,29.22,North,0,0.0,0.0,1,0.00,,,0.38,WUHU216HW,2013-04-28 16:30:00,
2013-04-28 12:35:00,57.1,1.0,29.22,North,0,0.0,0.0,1,0.00,,,0.38,WUHU216HW,2013-04-28 16:35:00,
2013-04-28 12:40:00,57.1,1.0,29.22,North,0,0.0,0.0,1,0.00,,,0.38,WUHU216HW,2013-04-28 16:40:00,
2013-04-28 12:45:00,57.1,1.0,29.21,North,0,0.0,0.0,1,0.00,,,0.38,WUHU216HW,2013-04-28 16:45:00,
2013-04-28 12:50:00,57.2,1.1,29.21,North,0,0.0,0.0,1,0.00,,,0.38,WUHU216HW,2013-04-28 16:50:00,
2013-04-28 12:56:00,57.6,1.4,29.21,North,0,0.0,0.0,1,0.00,,,0.38,WUHU216HW,2013-04-28 16:56:00,
2013-04-28 13:01:00,57.6,1.4,29.21,North,0,0.0,0.0,1,0.00,,,0.38,WUHU216HW,2013-04-28 17:01:00,
2013-04-28 13:06:00,57.6,1.4,29.21,North,0,0.0,0.0,1,0.00,,,0.38,WUHU216HW,2013-04-28 17:06:00,
2013-04-28 13:11:00,58.1,1.8,29.21,North,0,0.0,0.0,1,0.00,,,0.38,WUHU216HW,2013-04-28 17:11:00,
2013-04-28 13:16:00,58.5,2.1,29.21,North,0,0.0,0.0,1,0.00,,,0.38,WUHU216HW,2013-04-28 17:16:00,
2013-04-28 13:21:00,58.9,2.3,29.20,North,0,0.0,0.0,1,0.00,,,0.38,WUHU216HW,2013-04-28 17:21:00,
2013-04-28 13:26:00,59.4,2.8,29.21,North,0,0.0,0.0,1,0.00,,,0.38,WUHU216HW,2013-04-28 17:26:00,
2013-04-28 13:31:00,59.4,2.8,29.21,North,0,0.0,0.0,1,0.00,,,0.38,WUHU216HW,2013-04-28 17:31:00,
2013-04-28 13:36:00,59.2,2.7,29.20,North,0,0.0,0.0,1,0.00,,,0.38,WUHU216HW,2013-04-28 17:36:00,
2013-04-28 13:42:00,59.6,3.0,29.21,North,0,0.0,0.0,1,0.00,,,0.38,WUHU216HW,2013-04-28 17:42:00,
2013-04-28 13:47:00,59.6,3.0,29.20,North,0,0.0,0.0,1,0.00,,,0.38,WUHU216HW,2013-04-28 17:47:00,
2013-04-28 13:52:00,59.8,3.1,29.21,North,0,0.0,0.0,1,0.00,,,0.38,WUHU216HW,2013-04-28 17:52:00,
2013-04-28 13:57:00,60.1,3.4,29.20,North,0,0.0,0.0,1,0.00,,,0.38,WUHU216HW,2013-04-28 17:57:00,
2013-04-28 14:02:00,60.1,3.4,29.20,North,0,0.0,0.0,1,0.00,,,0.38,WUHU216HW,2013-04-28 18:02:00,
2013-04-28 14:07:00,59.4,2.8,29.20,North,0,0.0,0.0,1,0.00,,,0.38,WUHU216HW,2013-04-28 18:07:00,
2013-04-28 14:12:00,59.0,2.5,29.20,North,0,0.0,0.0,1,0.00,,,0.38,WUHU216HW,2013-04-28 18:12:00,
2013-04-28 14:17:00,59.0,2.5,29.20,North,0,0.0,0.0,1,0.00,,,0.38,WUHU216HW,2013-04-28 18:17:00,
2013-04-28 14:22:00,59.4,2.8,29.20,North,0,0.0,0.0,1,0.00,,,0.38,WUHU216HW,2013-04-28 18:22:00,
2013-04-28 14:28:00,59.8,3.1,29.20,North,0,0.0,0.0,1,0.00,,,0.38,WUHU216HW,2013-04-28 18:28:00,
2013-04-28 14:33:00,60.1,3.4,29.20,North,0,0.0,0.0,1,0.00,,,0.38,WUHU216HW,2013-04-28 18:33:00,
2013-04-28 14:38:00,60.3,3.5,29.20,North,0,0.0,0.0,1,0.00,,,0.38,WUHU216HW,2013-04-28 18:38:00,
2013-04-28 14:43:00,60.7,3.8,29.20,North,0,0.0,0.0,1,0.00,,,0.38,WUHU216HW,2013-04-28 18:43:00,
2013-04-28 14:48:00,60.8,4.0,29.20,North,0,0.0,0.0,1,0.00,,,0.38,WUHU216HW,2013-04-28 18:48:00,
2013-04-28 14:53:00,60.5,3.7,29.20,North,0,0.0,0.0,1,0.00,,,0.38,WUHU216HW,2013-04-28 18:53:00,
2013-04-28 14:58:00,61.0,4.2,29.20,North,0,0.0,0.0,1,0.00,,,0.38,WUHU216HW,2013-04-28 18:58:00,
2013-04-28 15:03:00,62.5,5.2,29.20,North,0,0.0,0.0,1,0.00,,,0.38,WUHU216HW,2013-04-28 19:03:00,
2013-04-28 15:09:00,63.7,6.1,29.20,North,0,0.0,0.0,1,0.00,,,0.38,WUHU216HW,2013-04-28 19:09:00,
2013-04-28 15:14:00,66.2,8.1,29.20,North,0,0.0,0.0,1,0.00,,,0.38,WUHU216HW,2013-04-28 19:14:00,
2013-04-28 15:19:00,67.3,9.0,29.20,North,0,0.0,0.0,1,0.00,,,0.38,WUHU216HW,2013-04-28 19:19:00,
2013-04-28 15:24:00,67.3,9.0,29.20,North,0,0.0,0.0,1,0.00,,,0.38,WUHU216HW,2013-04-28 19:24:00,
2013-04-28 15:29:00,65.7,7.7,29.20,North,0,0.0,0.0,1,0.00,,,0.38,WUHU216HW,2013-04-28 19:29:00,
2013-04-28 15:34:00,64.1,6.4,29.20,North,0,0.0,0.0,1,0.00,,,0.38,WUHU216HW,2013-04-28 19:34:00,
2013-04-28 16:02:00,62.5,5.2,29.20,North,0,0.0,0.0,1,0.00,,,0.38,WUHU216HW,2013-04-28 20:02:00,
2013-04-28 16:07:00,62.1,5.0,29.20,North,0,0.0,0.0,1,0.00,,,0.38,WUHU216HW,2013-04-28 20:07:00,
2013-04-28 16:12:00,62.1,5.0,29.20,North,0,0.0,0.0,1,0.00,,,0.38,WUHU216HW,2013-04-28 20:12:00,
2013-04-28 16:17:00,62.1,5.0,29.20,North,0,0.0,0.0,1,0.00,,,0.38,WUHU216HW,2013-04-28 20:17:00,
2013-04-28 16:22:00,61.6,4.5,29.20,North,0,0.0,0.0,1,0.00,,,0.38,WUHU216HW,2013-04-28 20:22:00,
2013-04-28 16:27:00,60.8,4.0,29.20,North,0,0.0,0.0,1,0.00,,,0.38,WUHU216HW,2013-04-28 20:27:00,
2013-04-28 16:33:00,60.5,3.7,29.20,North,0,0.0,0.0,1,0.00,,,0.38,WUHU216HW,2013-04-28 20:33:00,
2013-04-28 16:38:00,60.1,3.4,29.19,North,0,0.0,0.0,1,0.01,,,0.39,WUHU216HW,2013-04-28 20:38:00,
2013-04-28 16:43:00,60.1,3.4,29.19,North,0,0.0,0.0,1,0.01,,,0.39,WUHU216HW,2013-04-28 20:43:00,
2013-04-28 16:48:00,59.9,3.2,29.20,North,0,0.0,0.0,1,0.01,,,0.39,WUHU216HW,2013-04-28 20:48:00,
2013-04-28 16:53:00,59.6,3.0,29.20,North,0,0.0,0.0,1,0.01,,,0.39,WUHU216HW,2013-04-28 20:53:00,
2013-04-28 16:58:00,59.4,2.8,29.20,North,0,0.0,0.0,1,0.01,,,0.39,WUHU216HW,2013-04-28 20:58:00,
2013-04-28 17:03:00,58.9,2.3,29.20,North,0,0.0,0.0,1,0.02,,,0.39,WUHU216HW,2013-04-28 21:03:00,
2013-04-28 17:08:00,58.5,2.1,29.20,North,0,0.0,0.0,1,0.04,,,0.42,WUHU216HW,2013-04-28 21:08:00,
2013-04-28 17:13:00,58.1,1.8,29.20,North,0,0.0,0.0,1,0.05,,,0.43,WUHU216HW,2013-04-28 21:13:00,
2013-04-28 17:19:00,58.0,1.6,29.20,North,0,0.0,0.0,1,0.06,,,0.44,WUHU216HW,2013-04-28 21:19:00,
2013-04-28 17:24:00,58.0,1.6,29.20,North,0,0.0,0.0,1,0.07,,,0.44,WUHU216HW,2013-04-28 21:24:00,
2013-04-28 17:29:00,58.0,1.6,29.20,North,0,0.0,0.0,1,0.08,,,0.46,WUHU216HW,2013-04-28 21:29:00,
2013-04-28 17:34:00,58.0,1.6,29.20,North,0,0.0,0.0,1,0.09,,,0.47,WUHU216HW,2013-04-28 21:34:00,
2013-04-28 17:39:00,58.0,1.6,29.20,North,0,0.0,0.0,1,0.08,,,0.47,WUHU216HW,2013-04-28 21:39:00,
2013-04-28 17:44:00,58.0,1.6,29.20,North,0,0.0,0.0,1,0.08,,,0.47,WUHU216HW,2013-04-28 21:44:00,
2013-04-28 17:49:00,58.1,1.8,29.20,North,0,0.0,0.0,1,0.09,,,0.48,WUHU216HW,2013-04-28 21:49:00,
2013-04-28 17:54:00,58.1,1.8,29.20,North,0,0.0,0.0,1,0.09,,,0.48,WUHU216HW,2013-04-28 21:54:00,
2013-04-28 17:59:00,58.1,1.8,29.20,North,0,0.0,0.0,1,0.09,,,0.48,WUHU216HW,2013-04-28 21:59:00,
2013-04-28 18:04:00,58.0,1.6,29.20,North,0,0.0,0.0,1,0.06,,,0.48,WUHU216HW,2013-04-28 22:04:00,
2013-04-28 18:10:00,57.8,1.5,29.20,North,0,0.0,0.0,1,0.05,,,0.48,WUHU216HW,2013-04-28 22:10:00,
2013-04-28 18:15:00,58.0,1.6,29.20,North,0,0.0,0.0,1,0.04,,,0.48,WUHU216HW,2013-04-28 22:15:00,
2013-04-28 18:20:00,58.0,1.6,29.20,North,0,0.0,0.0,1,0.04,,,0.48,WUHU216HW,2013-04-28 22:20:00,
2013-04-28 18:25:00,57.8,1.5,29.20,North,0,0.0,0.0,1,0.02,,,0.48,WUHU216HW,2013-04-28 22:25:00,
2013-04-28 18:30:00,57.8,1.5,29.20,North,0,0.0,0.0,1,0.01,,,0.48,WUHU216HW,2013-04-28 22:30:00,
2013-04-28 18:35:00,57.6,1.4,29.21,North,0,0.0,0.0,1,0.01,,,0.48,WUHU216HW,2013-04-28 22:35:00,
2013-04-28 18:40:00,57.8,1.5,29.20,North,0,0.0,0.0,1,0.01,,,0.48,WUHU216HW,2013-04-28 22:40:00,
2013-04-28 18:45:00,58.0,1.6,29.20,North,0,0.0,0.0,1,0.00,,,0.48,WUHU216HW,2013-04-28 22:45:00,
2013-04-28 18:50:00,58.1,1.8,29.20,North,0,0.0,0.0,1,0.00,,,0.48,WUHU216HW,2013-04-28 22:50:00,
2013-04-28 18:55:00,58.1,1.8,29.21,North,0,0.0,0.0,1,0.00,,,0.48,WUHU216HW,2013-04-28 22:55:00,
2013-04-28 19:01:00,58.0,1.6,29.21,North,0,0.0,0.0,1,0.00,,,0.48,WUHU216HW,2013-04-28 23:01:00,
2013-04-28 19:06:00,58.0,1.6,29.21,North,0,0.0,0.0,1,0.00,,,0.48,WUHU216HW,2013-04-28 23:06:00,
2013-04-28 19:11:00,58.0,1.6,29.21,North,0,0.0,0.0,1,0.00,,,0.48,WUHU216HW,2013-04-28 23:11:00,
2013-04-28 19:16:00,57.6,1.4,29.21,North,0,0.0,0.0,1,0.00,,,0.48,WUHU216HW,2013-04-28 23:16:00,
2013-04-28 19:21:00,57.6,1.4,29.21,North,0,0.0,0.0,1,0.00,,,0.48,WUHU216HW,2013-04-28 23:21:00,
2013-04-28 19:26:00,57.6,1.4,29.21,North,0,0.0,0.0,1,0.00,,,0.48,WUHU216HW,2013-04-28 23:26:00,
2013-04-28 19:31:00,57.6,1.4,29.21,North,0,0.0,0.0,1,0.00,,,0.48,WUHU216HW,2013-04-28 23:31:00,
2013-04-28 19:36:00,57.4,1.3,29.21,North,0,0.0,0.0,1,0.00,,,0.48,WUHU216HW,2013-04-28 23:36:00,
2013-04-28 19:41:00,57.4,1.3,29.21,North,0,0.0,0.0,1,0.00,,,0.48,WUHU216HW,2013-04-28 23:41:00,
2013-04-28 19:47:00,57.4,1.3,29.21,North,0,0.0,0.0,1,0.00,,,0.48,WUHU216HW,2013-04-28 23:47:00,
2013-04-28 19:52:00,57.4,1.3,29.21,North,0,0.0,0.0,1,0.00,,,0.48,WUHU216HW,2013-04-28 23:52:00,
2013-04-28 19:57:00,57.2,1.1,29.21,North,0,0.0,0.0,1,0.00,,,0.48,WUHU216HW,2013-04-28 23:57:00,
2013-04-28 20:02:00,57.2,1.1,29.21,North,0,0.0,0.0,1,0.00,,,0.48,WUHU216HW,2013-04-29 00:02:00,
2013-04-28 20:07:00,57.2,1.1,29.21,North,0,0.0,0.0,1,0.00,,,0.48,WUHU216HW,2013-04-29 00:07:00,
2013-04-28 20:12:00,57.2,1.1,29.21,North,0,0.0,0.0,1,0.00,,,0.48,WUHU216HW,2013-04-29 00:12:00,
2013-04-28 20:17:00,57.2,1.1,29.22,North,0,0.0,0.0,1,0.00,,,0.48,WUHU216HW,2013-04-29 00:17:00,
2013-04-28 20:22:00,57.1,1.0,29.22,North,0,0.0,0.0,1,0.00,,,0.48,WUHU216HW,2013-04-29 00:22:00,
2013-04-28 20:27:00,57.1,1.0,29.22,North,0,0.0,0.0,1,0.00,,,0.48,WUHU216HW,2013-04-29 00:27:00,
2013-04-28 20:32:00,57.1,1.0,29.22,North,0,0.0,0.0,1,0.01,,,0.49,WUHU216HW,2013-04-29 00:32:00,
2013-04-28 20:37:00,56.9,0.8,29.22,North,0,0.0,0.0,1,0.01,,,0.49,WUHU216HW,2013-04-29 00:37:00,
2013-04-28 20:42:00,56.9,0.8,29.22,North,0,0.0,0.0,1,0.01,,,0.49,WUHU216HW,2013-04-29 00:42:00,
2013-04-28 20:48:00,56.7,0.7,29.22,North,0,0.0,0.0,1,0.01,,,0.49,WUHU216HW,2013-04-29 00:48:00,
2013-04-28 20:53:00,56.7,0.7,29.22,North,0,0.0,0.0,1,0.01,,,0.49,WUHU216HW,2013-04-29 00:53:00,
2013-04-28 20:58:00,56.5,0.5,29.22,North,0,0.0,0.0,1,0.01,,,0.49,WUHU216HW,2013-04-29 00:58:00,
2013-04-28 21:03:00,56.5,0.5,29.22,North,0,0.0,0.0,1,0.01,,,0.49,WUHU216HW,2013-04-29 01:03:00,
2013-04-28 21:08:00,56.5,0.5,29.22,North,0,0.0,0.0,1,0.01,,,0.49,WUHU216HW,2013-04-29 01:08:00,
2013-04-28 21:13:00,56.3,0.5,29.22,North,0,0.0,0.0,1,0.01,,,0.49,WUHU216HW,2013-04-29 01:13:00,
2013-04-28 21:18:00,56.3,0.5,29.22,North,0,0.0,0.0,1,0.01,,,0.49,WUHU216HW,2013-04-29 01:18:00,
2013-04-28 21:23:00,56.2,0.4,29.22,North,0,0.0,0.0,1,0.01,,,0.49,WUHU216HW,2013-04-29 01:23:00,
2013-04-28 21:29:00,56.2,0.4,29.23,North,0,0.0,0.0,1,0.00,,,0.49,WUHU216HW,2013-04-29 01:29:00,
2013-04-28 21:34:00,56.0,0.2,29.23,North,0,0.0,0.0,1,0.00,,,0.49,WUHU216HW,2013-04-29 01:34:00,
2013-04-28 21:39:00,56.0,0.2,29.23,North,0,0.0,0.0,1,0.00,,,0.49,WUHU216HW,2013-04-29 01:39:00,
2013-04-28 21:44:00,56.0,0.2,29.23,North,0,0.0,0.0,1,0.00,,,0.49,WUHU216HW,2013-04-29 01:44:00,
2013-04-28 21:49:00,56.0,0.2,29.23,North,0,0.0,0.0,1,0.00,,,0.49,WUHU216HW,2013-04-29 01:49:00,
2013-04-28 21:54:00,55.8,0.1,29.23,North,0,0.0,0.0,1,0.00,,,0.49,WUHU216HW,2013-04-29 01:54:00,
2013-04-28 21:59:00,55.8,0.1,29.24,North,0,0.0,0.0,1,0.00,,,0.49,WUHU216HW,2013-04-29 01:59:00,
2013-04-28 22:04:00,55.8,0.1,29.24,North,0,0.0,0.0,1,0.00,,,0.49,WUHU216HW,2013-04-29 02:04:00,
2013-04-28 22:09:00,55.8,0.1,29.24,North,0,0.0,0.0,1,0.00,,,0.49,WUHU216HW,2013-04-29 02:09:00,
2013-04-28 22:15:00,55.8,0.1,29.24,North,0,0.0,0.0,1,0.00,,,0.49,WUHU216HW,2013-04-29 02:15:00,
2013-04-28 22:20:00,55.8,0.1,29.24,North,0,0.0,0.0,1,0.00,,,0.49,WUHU216HW,2013-04-29 02:20:00,
2013-04-28 22:25:00,56.0,0.2,29.25,North,0,0.0,0.0,1,0.00,,,0.49,WUHU216HW,2013-04-29 02:25:00,
2013-04-28 22:30:00,55.8,0.1,29.25,North,0,0.0,0.0,1,0.00,,,0.49,WUHU216HW,2013-04-29 02:30:00,
2013-04-28 22:35:00,56.0,0.2,29.25,North,0,0.0,0.0,1,0.00,,,0.49,WUHU216HW,2013-04-29 02:35:00,
2013-04-28 22:40:00,55.8,0.1,29.25,North,0,0.0,0.0,1,0.00,,,0.49,WUHU216HW,2013-04-29 02:40:00,
2013-04-28 22:45:00,55.8,0.1,29.25,North,0,0.0,0.0,1,0.00,,,0.49,WUHU216HW,2013-04-29 02:45:00,
2013-04-28 22:50:00,55.8,0.1,29.25,North,0,0.0,0.0,1,0.00,,,0.49,WUHU216HW,2013-04-29 02:50:00,
2013-04-28 22:55:00,55.8,0.1,29.25,North,0,0.0,0.0,1,0.00,,,0.49,WUHU216HW,2013-04-29 02:55:00,
2013-04-28 23:01:00,55.8,0.1,29.25,North,0,0.0,0.0,1,0.00,,,0.49,WUHU216HW,2013-04-29 03:01:00,
2013-04-28 23:06:00,55.6,-0.1,29.25,North,0,0.0,0.0,1,0.00,,,0.49,WUHU216HW,2013-04-29 03:06:00,
2013-04-28 23:11:00,55.6,-0.1,29.26,North,0,0.0,0.0,1,0.00,,,0.49,WUHU216HW,2013-04-29 03:11:00,
2013-04-28 23:16:00,55.6,-0.1,29.25,North,0,0.0,0.0,1,0.00,,,0.49,WUHU216HW,2013-04-29 03:16:00,
2013-04-28 23:21:00,55.4,-0.2,29.25,North,0,0.0,0.0,1,0.00,,,0.49,WUHU216HW,2013-04-29 03:21:00,
2013-04-28 23:26:00,55.4,-0.2,29.25,North,0,0.0,0.0,1,0.00,,,0.49,WUHU216HW,2013-04-29 03:26:00,
2013-04-28 23:31:00,55.4,-0.2,29.25,North,0,0.0,0.0,1,0.00,,,0.49,WUHU216HW,2013-04-29 03:31:00,
2013-04-28 23:36:00,55.4,-0.2,29.25,North,0,0.0,0.0,1,0.00,,,0.49,WUHU216HW,2013-04-29 03:36:00,
2013-04-28 23:41:00,55.3,-0.4,29.25,North,0,0.0,0.0,1,0.00,,,0.49,WUHU216HW,2013-04-29 03:41:00,
2013-04-28 23:46:00,55.3,-0.4,29.25,North,0,0.0,0.0,1,0.00,,,0.49,WUHU216HW,2013-04-29 03:46:00,
2013-04-28 23:52:00,55.3,-0.4,29.25,North,0,0.0,0.0,1,0.00,,,0.49,WUHU216HW,2013-04-29 03:52:00,
2013-04-28 23:57:00,55.3,-0.4,29.25,North,0,0.0,0.0,1,0.00,,,0.49,WUHU216HW,2013-04-29 03:57:00,